sensor_id;sensor_type;location;lat;lon;timestamp;pressure;altitude;pressure_sealevel;temperature;humidity
10946;BME280;5525;42.648;23.368;2023-06-10T00:01:10;94290.69;;;17.32;100.00
10946;BME280;5525;42.648;23.368;2023-06-10T00:03:37;94298.50;;;17.33;100.00
10946;BME280;5525;42.648;23.368;2023-06-10T00:06:04;94298.59;;;17.40;100.00
10946;BME280;5525;42.648;23.368;2023-06-10T00:08:32;94293.78;;;17.63;100.00
10946;BME280;5525;42.648;23.368;2023-06-10T00:10:59;94297.84;;;17.43;100.00
10946;BME280;5525;42.648;23.368;2023-06-10T00:13:26;94300.91;;;17.38;100.00
10946;BME280;5525;42.648;23.368;2023-06-10T00:15:53;94299.75;;;17.39;100.00
10946;BME280;5525;42.648;23.368;2023-06-10T00:18:20;94304.44;;;17.39;100.00
10946;BME280;5525;42.648;23.368;2023-06-10T00:20:47;94303.00;;;17.15;100.00
10946;BME280;5525;42.648;23.368;2023-06-10T00:23:20;94288.72;;;16.92;100.00
10946;BME280;5525;42.648;23.368;2023-06-10T00:25:49;94298.13;;;16.98;100.00
10946;BME280;5525;42.648;23.368;2023-06-10T00:28:15;94301.41;;;17.11;100.00
10946;BME280;5525;42.648;23.368;2023-06-10T00:30:42;94309.75;;;17.25;100.00
10946;BME280;5525;42.648;23.368;2023-06-10T00:33:09;94300.44;;;17.29;100.00
10946;BME280;5525;42.648;23.368;2023-06-10T00:35:35;94303.88;;;17.23;100.00
10946;BME280;5525;42.648;23.368;2023-06-10T00:38:02;94310.56;;;17.29;100.00
10946;BME280;5525;42.648;23.368;2023-06-10T00:40:29;94308.25;;;17.31;100.00
10946;BME280;5525;42.648;23.368;2023-06-10T00:42:57;94300.69;;;17.17;100.00
10946;BME280;5525;42.648;23.368;2023-06-10T00:45:23;94307.97;;;17.06;100.00
10946;BME280;5525;42.648;23.368;2023-06-10T00:47:50;94302.47;;;17.03;100.00
10946;BME280;5525;42.648;23.368;2023-06-10T00:50:17;94301.72;;;17.06;100.00
10946;BME280;5525;42.648;23.368;2023-06-10T00:52:44;94309.81;;;17.32;100.00
10946;BME280;5525;42.648;23.368;2023-06-10T00:55:13;94313.75;;;17.38;100.00
10946;BME280;5525;42.648;23.368;2023-06-10T00:57:40;94304.06;;;17.40;100.00
10946;BME280;5525;42.648;23.368;2023-06-10T01:00:12;94307.78;;;17.58;100.00
10946;BME280;5525;42.648;23.368;2023-06-10T01:02:39;94307.84;;;17.69;100.00
10946;BME280;5525;42.648;23.368;2023-06-10T01:05:06;94303.13;;;17.62;100.00
10946;BME280;5525;42.648;23.368;2023-06-10T01:07:37;94313.66;;;17.64;100.00
10946;BME280;5525;42.648;23.368;2023-06-10T01:10:09;94304.72;;;17.67;100.00
10946;BME280;5525;42.648;23.368;2023-06-10T01:12:41;94302.88;;;17.78;100.00
10946;BME280;5525;42.648;23.368;2023-06-10T01:15:08;94301.59;;;17.65;100.00
10946;BME280;5525;42.648;23.368;2023-06-10T01:17:54;94314.06;;;17.29;100.00
10946;BME280;5525;42.648;23.368;2023-06-10T01:20:22;94314.72;;;17.19;100.00
10946;BME280;5525;42.648;23.368;2023-06-10T01:22:50;94313.81;;;17.05;100.00
10946;BME280;5525;42.648;23.368;2023-06-10T01:25:19;94307.88;;;16.96;100.00
10946;BME280;5525;42.648;23.368;2023-06-10T01:27:55;94312.84;;;17.23;100.00
10946;BME280;5525;42.648;23.368;2023-06-10T01:30:27;94311.50;;;17.43;100.00
10946;BME280;5525;42.648;23.368;2023-06-10T01:32:57;94317.78;;;17.47;100.00
10946;BME280;5525;42.648;23.368;2023-06-10T01:35:27;94303.03;;;17.52;100.00
10946;BME280;5525;42.648;23.368;2023-06-10T01:37:57;94314.50;;;17.68;100.00
10946;BME280;5525;42.648;23.368;2023-06-10T01:40:25;94311.06;;;17.78;100.00
10946;BME280;5525;42.648;23.368;2023-06-10T01:42:53;94312.81;;;17.53;100.00
10946;BME280;5525;42.648;23.368;2023-06-10T01:45:19;94309.19;;;17.45;100.00
10946;BME280;5525;42.648;23.368;2023-06-10T01:47:46;94310.16;;;17.63;100.00
10946;BME280;5525;42.648;23.368;2023-06-10T01:50:13;94313.81;;;17.81;100.00
10946;BME280;5525;42.648;23.368;2023-06-10T01:52:40;94302.88;;;17.78;100.00
10946;BME280;5525;42.648;23.368;2023-06-10T01:55:08;94304.81;;;17.77;100.00
10946;BME280;5525;42.648;23.368;2023-06-10T01:57:35;94297.47;;;17.88;100.00
10946;BME280;5525;42.648;23.368;2023-06-10T02:00:01;94304.16;;;17.94;100.00
10946;BME280;5525;42.648;23.368;2023-06-10T02:02:28;94301.50;;;18.01;100.00
10946;BME280;5525;42.648;23.368;2023-06-10T02:04:55;94295.63;;;17.99;100.00
10946;BME280;5525;42.648;23.368;2023-06-10T02:07:22;94300.28;;;17.95;100.00
10946;BME280;5525;42.648;23.368;2023-06-10T02:09:49;94297.91;;;17.90;100.00
10946;BME280;5525;42.648;23.368;2023-06-10T02:12:17;94294.78;;;17.92;100.00
10946;BME280;5525;42.648;23.368;2023-06-10T02:14:44;94289.66;;;17.83;100.00
10946;BME280;5525;42.648;23.368;2023-06-10T02:17:10;94285.59;;;17.67;100.00
10946;BME280;5525;42.648;23.368;2023-06-10T02:19:40;94291.44;;;17.62;100.00
10946;BME280;5525;42.648;23.368;2023-06-10T02:22:08;94283.41;;;17.43;100.00
10946;BME280;5525;42.648;23.368;2023-06-10T02:24:35;94279.88;;;17.42;100.00
10946;BME280;5525;42.648;23.368;2023-06-10T02:27:04;94278.81;;;17.50;100.00
10946;BME280;5525;42.648;23.368;2023-06-10T02:29:33;94277.03;;;17.68;100.00
10946;BME280;5525;42.648;23.368;2023-06-10T02:32:01;94273.66;;;17.82;100.00
10946;BME280;5525;42.648;23.368;2023-06-10T02:34:28;94270.88;;;17.78;100.00
10946;BME280;5525;42.648;23.368;2023-06-10T02:36:55;94267.63;;;17.62;100.00
10946;BME280;5525;42.648;23.368;2023-06-10T02:39:22;94265.50;;;17.45;100.00
10946;BME280;5525;42.648;23.368;2023-06-10T02:41:48;94265.84;;;17.40;100.00
10946;BME280;5525;42.648;23.368;2023-06-10T02:44:15;94260.94;;;17.56;100.00
10946;BME280;5525;42.648;23.368;2023-06-10T02:46:43;94259.38;;;17.55;100.00
10946;BME280;5525;42.648;23.368;2023-06-10T02:49:10;94262.41;;;17.47;100.00
10946;BME280;5525;42.648;23.368;2023-06-10T02:51:37;94264.69;;;17.41;100.00
10946;BME280;5525;42.648;23.368;2023-06-10T02:54:04;94267.09;;;17.46;100.00
10946;BME280;5525;42.648;23.368;2023-06-10T02:56:31;94256.34;;;17.27;100.00
10946;BME280;5525;42.648;23.368;2023-06-10T02:58:58;94261.00;;;17.27;100.00
10946;BME280;5525;42.648;23.368;2023-06-10T03:01:26;94256.06;;;17.36;100.00
10946;BME280;5525;42.648;23.368;2023-06-10T03:03:54;94253.38;;;17.43;100.00
10946;BME280;5525;42.648;23.368;2023-06-10T03:06:21;94258.03;;;17.39;100.00
10946;BME280;5525;42.648;23.368;2023-06-10T03:08:49;94258.94;;;17.50;100.00
10946;BME280;5525;42.648;23.368;2023-06-10T03:11:16;94260.97;;;17.60;100.00
10946;BME280;5525;42.648;23.368;2023-06-10T03:13:44;94267.53;;;17.52;100.00
10946;BME280;5525;42.648;23.368;2023-06-10T03:16:11;94267.50;;;17.48;100.00
10946;BME280;5525;42.648;23.368;2023-06-10T03:18:38;94267.13;;;17.50;100.00
10946;BME280;5525;42.648;23.368;2023-06-10T03:21:06;94274.22;;;17.58;100.00
10946;BME280;5525;42.648;23.368;2023-06-10T03:23:34;94277.59;;;17.44;100.00
10946;BME280;5525;42.648;23.368;2023-06-10T03:26:00;94286.22;;;17.50;100.00
10946;BME280;5525;42.648;23.368;2023-06-10T03:28:27;94286.31;;;17.57;100.00
10946;BME280;5525;42.648;23.368;2023-06-10T03:30:54;94282.22;;;17.80;100.00
10946;BME280;5525;42.648;23.368;2023-06-10T03:33:20;94284.00;;;17.59;100.00
10946;BME280;5525;42.648;23.368;2023-06-10T03:35:47;94283.75;;;17.38;100.00
10946;BME280;5525;42.648;23.368;2023-06-10T03:38:15;94288.81;;;17.39;100.00
10946;BME280;5525;42.648;23.368;2023-06-10T03:40:42;94293.00;;;17.63;100.00
10946;BME280;5525;42.648;23.368;2023-06-10T03:43:10;94298.41;;;17.56;100.00
10946;BME280;5525;42.648;23.368;2023-06-10T03:45:36;94300.72;;;17.54;100.00
10946;BME280;5525;42.648;23.368;2023-06-10T03:48:04;94300.25;;;17.45;100.00
10946;BME280;5525;42.648;23.368;2023-06-10T03:50:31;94300.25;;;17.45;100.00
10946;BME280;5525;42.648;23.368;2023-06-10T03:52:58;94299.69;;;17.32;100.00
10946;BME280;5525;42.648;23.368;2023-06-10T03:55:26;94294.50;;;17.20;100.00
10946;BME280;5525;42.648;23.368;2023-06-10T03:57:53;94298.00;;;17.21;100.00
10946;BME280;5525;42.648;23.368;2023-06-10T04:00:20;94302.56;;;17.10;100.00
10946;BME280;5525;42.648;23.368;2023-06-10T04:02:47;94301.81;;;17.13;100.00
10946;BME280;5525;42.648;23.368;2023-06-10T04:05:17;94295.56;;;17.12;100.00
10946;BME280;5525;42.648;23.368;2023-06-10T04:07:45;94295.19;;;17.14;100.00
10946;BME280;5525;42.648;23.368;2023-06-10T04:10:14;94303.91;;;17.26;100.00
10946;BME280;5525;42.648;23.368;2023-06-10T04:12:44;94299.50;;;17.15;100.00
10946;BME280;5525;42.648;23.368;2023-06-10T04:15:11;94305.69;;;17.12;100.00
10946;BME280;5525;42.648;23.368;2023-06-10T04:17:38;94309.25;;;17.16;100.00
10946;BME280;5525;42.648;23.368;2023-06-10T04:20:06;94310.88;;;17.20;100.00
10946;BME280;5525;42.648;23.368;2023-06-10T04:22:35;94310.94;;;17.27;100.00
10946;BME280;5525;42.648;23.368;2023-06-10T04:25:01;94307.38;;;17.23;100.00
10946;BME280;5525;42.648;23.368;2023-06-10T04:27:28;94315.09;;;17.18;100.00
10946;BME280;5525;42.648;23.368;2023-06-10T04:29:57;94303.81;;;17.16;100.00
10946;BME280;5525;42.648;23.368;2023-06-10T04:32:23;94317.47;;;17.19;100.00
10946;BME280;5525;42.648;23.368;2023-06-10T04:34:50;94312.75;;;17.16;100.00
10946;BME280;5525;42.648;23.368;2023-06-10T04:37:17;94313.47;;;17.10;100.00
10946;BME280;5525;42.648;23.368;2023-06-10T04:39:44;94321.66;;;17.10;100.00
10946;BME280;5525;42.648;23.368;2023-06-10T04:42:11;94313.50;;;17.13;100.00
10946;BME280;5525;42.648;23.368;2023-06-10T04:44:38;94315.47;;;17.13;100.00
10946;BME280;5525;42.648;23.368;2023-06-10T04:47:07;94308.03;;;17.13;100.00
10946;BME280;5525;42.648;23.368;2023-06-10T04:49:34;94312.38;;;17.14;100.00
10946;BME280;5525;42.648;23.368;2023-06-10T04:52:01;94312.38;;;17.51;100.00
10946;BME280;5525;42.648;23.368;2023-06-10T04:54:30;94308.94;;;17.61;100.00
10946;BME280;5525;42.648;23.368;2023-06-10T04:56:58;94304.44;;;17.79;100.00
10946;BME280;5525;42.648;23.368;2023-06-10T04:59:24;94300.03;;;17.67;100.00
10946;BME280;5525;42.648;23.368;2023-06-10T05:01:51;94309.03;;;17.71;100.00
10946;BME280;5525;42.648;23.368;2023-06-10T05:04:19;94306.69;;;17.70;100.00
10946;BME280;5525;42.648;23.368;2023-06-10T05:06:46;94302.06;;;17.74;100.00
10946;BME280;5525;42.648;23.368;2023-06-10T05:09:12;94305.06;;;17.62;100.00
10946;BME280;5525;42.648;23.368;2023-06-10T05:11:39;94301.50;;;17.58;100.00
10946;BME280;5525;42.648;23.368;2023-06-10T05:14:05;94308.41;;;17.85;100.00
10946;BME280;5525;42.648;23.368;2023-06-10T05:16:32;94307.00;;;18.08;100.00
10946;BME280;5525;42.648;23.368;2023-06-10T05:18:59;94308.03;;;17.90;100.00
10946;BME280;5525;42.648;23.368;2023-06-10T05:21:27;94296.53;;;17.67;100.00
10946;BME280;5525;42.648;23.368;2023-06-10T05:23:53;94300.81;;;17.64;100.00
10946;BME280;5525;42.648;23.368;2023-06-10T05:26:21;94301.69;;;17.75;100.00
10946;BME280;5525;42.648;23.368;2023-06-10T05:28:47;94295.97;;;17.94;100.00
10946;BME280;5525;42.648;23.368;2023-06-10T05:31:14;94300.91;;;18.29;100.00
10946;BME280;5525;42.648;23.368;2023-06-10T05:33:41;94304.13;;;18.38;100.00
10946;BME280;5525;42.648;23.368;2023-06-10T05:36:07;94310.97;;;18.79;100.00
10946;BME280;5525;42.648;23.368;2023-06-10T05:38:36;94298.94;;;18.98;100.00
10946;BME280;5525;42.648;23.368;2023-06-10T05:41:02;94304.56;;;19.29;100.00
10946;BME280;5525;42.648;23.368;2023-06-10T05:43:29;94301.84;;;19.29;100.00
10946;BME280;5525;42.648;23.368;2023-06-10T05:45:56;94303.03;;;19.35;100.00
10946;BME280;5525;42.648;23.368;2023-06-10T05:48:22;94303.78;;;19.29;100.00
10946;BME280;5525;42.648;23.368;2023-06-10T05:50:49;94308.41;;;19.14;100.00
10946;BME280;5525;42.648;23.368;2023-06-10T05:53:16;94314.38;;;19.44;100.00
10946;BME280;5525;42.648;23.368;2023-06-10T05:55:44;94309.31;;;19.64;100.00
10946;BME280;5525;42.648;23.368;2023-06-10T05:58:12;94307.38;;;19.71;100.00
10946;BME280;5525;42.648;23.368;2023-06-10T06:00:39;94318.78;;;20.23;100.00
10946;BME280;5525;42.648;23.368;2023-06-10T06:03:07;94318.28;;;20.87;100.00
10946;BME280;5525;42.648;23.368;2023-06-10T06:05:34;94312.25;;;21.27;100.00
10946;BME280;5525;42.648;23.368;2023-06-10T06:08:02;94320.16;;;21.18;100.00
10946;BME280;5525;42.648;23.368;2023-06-10T06:10:29;94323.44;;;20.64;100.00
10946;BME280;5525;42.648;23.368;2023-06-10T06:12:57;94322.66;;;20.53;100.00
10946;BME280;5525;42.648;23.368;2023-06-10T06:15:24;94323.50;;;20.33;100.00
10946;BME280;5525;42.648;23.368;2023-06-10T06:17:51;94319.91;;;20.67;100.00
10946;BME280;5525;42.648;23.368;2023-06-10T06:20:18;94316.69;;;21.00;100.00
10946;BME280;5525;42.648;23.368;2023-06-10T06:22:45;94312.69;;;21.19;100.00
10946;BME280;5525;42.648;23.368;2023-06-10T06:25:12;94320.63;;;20.85;100.00
10946;BME280;5525;42.648;23.368;2023-06-10T06:27:38;94315.56;;;20.80;100.00
10946;BME280;5525;42.648;23.368;2023-06-10T06:30:07;94314.38;;;20.85;100.00
10946;BME280;5525;42.648;23.368;2023-06-10T06:32:34;94311.06;;;21.28;100.00
10946;BME280;5525;42.648;23.368;2023-06-10T06:35:01;94315.31;;;21.47;100.00
10946;BME280;5525;42.648;23.368;2023-06-10T06:37:27;94320.25;;;21.69;100.00
10946;BME280;5525;42.648;23.368;2023-06-10T06:39:54;94320.25;;;21.73;100.00
10946;BME280;5525;42.648;23.368;2023-06-10T06:42:21;94319.63;;;21.44;100.00
10946;BME280;5525;42.648;23.368;2023-06-10T06:44:47;94316.44;;;21.56;100.00
10946;BME280;5525;42.648;23.368;2023-06-10T06:47:16;94305.34;;;21.70;100.00
10946;BME280;5525;42.648;23.368;2023-06-10T06:49:44;94311.66;;;21.67;100.00
10946;BME280;5525;42.648;23.368;2023-06-10T06:52:11;94312.34;;;21.86;100.00
10946;BME280;5525;42.648;23.368;2023-06-10T06:54:38;94304.56;;;21.70;100.00
10946;BME280;5525;42.648;23.368;2023-06-10T06:57:05;94303.38;;;21.75;100.00
10946;BME280;5525;42.648;23.368;2023-06-10T06:59:32;94310.03;;;22.28;100.00
10946;BME280;5525;42.648;23.368;2023-06-10T07:01:59;94302.78;;;22.04;100.00
10946;BME280;5525;42.648;23.368;2023-06-10T07:04:27;94293.25;;;21.61;100.00
10946;BME280;5525;42.648;23.368;2023-06-10T07:06:54;94307.19;;;22.39;100.00
10946;BME280;5525;42.648;23.368;2023-06-10T07:09:20;94299.28;;;22.85;100.00
10946;BME280;5525;42.648;23.368;2023-06-10T07:11:47;94294.53;;;23.53;100.00
10946;BME280;5525;42.648;23.368;2023-06-10T07:14:14;94299.78;;;24.00;100.00
10946;BME280;5525;42.648;23.368;2023-06-10T07:16:41;94299.06;;;23.93;100.00
10946;BME280;5525;42.648;23.368;2023-06-10T07:19:07;94295.63;;;25.04;100.00
10946;BME280;5525;42.648;23.368;2023-06-10T07:21:35;94291.91;;;26.05;100.00
10946;BME280;5525;42.648;23.368;2023-06-10T07:24:03;94298.06;;;26.61;100.00
10946;BME280;5525;42.648;23.368;2023-06-10T07:26:30;94286.91;;;25.64;100.00
10946;BME280;5525;42.648;23.368;2023-06-10T07:28:56;94288.31;;;26.40;100.00
10946;BME280;5525;42.648;23.368;2023-06-10T07:31:23;94285.38;;;31.32;84.75
10946;BME280;5525;42.648;23.368;2023-06-10T07:33:50;94290.03;;;34.79;62.10
10946;BME280;5525;42.648;23.368;2023-06-10T07:36:17;94302.25;;;34.76;51.96
10946;BME280;5525;42.648;23.368;2023-06-10T07:38:45;94307.59;;;37.19;44.61
10946;BME280;5525;42.648;23.368;2023-06-10T07:41:11;94299.91;;;31.72;56.68
10946;BME280;5525;42.648;23.368;2023-06-10T07:43:39;94285.75;;;30.76;66.32
10946;BME280;5525;42.648;23.368;2023-06-10T07:46:06;94291.34;;;29.10;77.01
10946;BME280;5525;42.648;23.368;2023-06-10T07:48:32;94286.25;;;31.65;71.65
10946;BME280;5525;42.648;23.368;2023-06-10T07:50:59;94302.56;;;34.64;52.45
10946;BME280;5525;42.648;23.368;2023-06-10T07:53:25;94307.06;;;36.16;45.38
10946;BME280;5525;42.648;23.368;2023-06-10T07:55:54;94297.72;;;35.79;43.63
10946;BME280;5525;42.648;23.368;2023-06-10T07:58:20;94302.00;;;34.60;44.89
10946;BME280;5525;42.648;23.368;2023-06-10T08:00:47;94306.38;;;34.17;49.53
10946;BME280;5525;42.648;23.368;2023-06-10T08:03:14;94298.19;;;34.13;50.48
10946;BME280;5525;42.648;23.368;2023-06-10T08:05:40;94289.50;;;31.90;58.16
10946;BME280;5525;42.648;23.368;2023-06-10T08:08:07;94289.81;;;32.66;54.71
10946;BME280;5525;42.648;23.368;2023-06-10T08:10:34;94282.94;;;33.47;52.41
10946;BME280;5525;42.648;23.368;2023-06-10T08:13:02;94290.28;;;36.27;44.85
10946;BME280;5525;42.648;23.368;2023-06-10T08:15:28;94292.41;;;37.53;38.06
10946;BME280;5525;42.648;23.368;2023-06-10T08:17:55;94294.88;;;38.10;36.08
10946;BME280;5525;42.648;23.368;2023-06-10T08:20:22;94292.63;;;37.55;34.46
10946;BME280;5525;42.648;23.368;2023-06-10T08:22:49;94288.56;;;36.35;35.57
10946;BME280;5525;42.648;23.368;2023-06-10T08:25:16;94282.81;;;34.09;37.78
10946;BME280;5525;42.648;23.368;2023-06-10T08:27:42;94287.31;;;35.39;35.38
10946;BME280;5525;42.648;23.368;2023-06-10T08:30:11;94284.81;;;37.87;32.07
10946;BME280;5525;42.648;23.368;2023-06-10T08:32:38;94286.72;;;37.37;29.79
10946;BME280;5525;42.648;23.368;2023-06-10T08:35:05;94276.19;;;37.37;30.46
10946;BME280;5525;42.648;23.368;2023-06-10T08:37:32;94283.13;;;39.68;28.01
10946;BME280;5525;42.648;23.368;2023-06-10T08:39:58;94283.06;;;41.62;25.73
10946;BME280;5525;42.648;23.368;2023-06-10T08:42:28;94284.91;;;42.15;24.98
10946;BME280;5525;42.648;23.368;2023-06-10T08:45:01;94291.00;;;42.06;24.78
10946;BME280;5525;42.648;23.368;2023-06-10T08:47:30;94281.25;;;43.28;23.26
10946;BME280;5525;42.648;23.368;2023-06-10T08:50:02;94276.38;;;42.84;23.70
10946;BME280;5525;42.648;23.368;2023-06-10T08:52:35;94279.28;;;44.68;22.60
10946;BME280;5525;42.648;23.368;2023-06-10T08:55:03;94269.88;;;42.70;24.33
10946;BME280;5525;42.648;23.368;2023-06-10T08:57:30;94264.06;;;41.75;25.50
10946;BME280;5525;42.648;23.368;2023-06-10T08:59:57;94255.16;;;41.66;25.22
10946;BME280;5525;42.648;23.368;2023-06-10T09:02:24;94249.88;;;41.57;24.37
10946;BME280;5525;42.648;23.368;2023-06-10T09:04:53;94247.75;;;37.30;28.53
10946;BME280;5525;42.648;23.368;2023-06-10T09:07:22;94243.69;;;40.86;25.30
10946;BME280;5525;42.648;23.368;2023-06-10T09:09:49;94244.44;;;41.16;24.97
10946;BME280;5525;42.648;23.368;2023-06-10T09:12:19;94246.44;;;40.68;24.54
10946;BME280;5525;42.648;23.368;2023-06-10T09:14:45;94243.13;;;38.35;26.12
10946;BME280;5525;42.648;23.368;2023-06-10T09:17:12;94244.78;;;39.72;25.51
10946;BME280;5525;42.648;23.368;2023-06-10T09:19:40;94238.25;;;39.94;24.61
10946;BME280;5525;42.648;23.368;2023-06-10T09:22:09;94241.06;;;41.60;23.29
10946;BME280;5525;42.648;23.368;2023-06-10T09:24:36;94249.13;;;43.33;22.28
10946;BME280;5525;42.648;23.368;2023-06-10T09:27:04;94236.25;;;42.43;22.79
10946;BME280;5525;42.648;23.368;2023-06-10T09:29:31;94244.34;;;42.20;21.66
10946;BME280;5525;42.648;23.368;2023-06-10T09:31:58;94234.63;;;42.47;22.36
10946;BME280;5525;42.648;23.368;2023-06-10T09:34:25;94247.91;;;43.42;21.74
10946;BME280;5525;42.648;23.368;2023-06-10T09:36:53;94239.56;;;42.60;21.25
10946;BME280;5525;42.648;23.368;2023-06-10T09:39:21;94226.88;;;41.60;22.06
10946;BME280;5525;42.648;23.368;2023-06-10T09:41:47;94230.66;;;41.50;21.95
10946;BME280;5525;42.648;23.368;2023-06-10T09:44:15;94215.66;;;39.37;22.79
10946;BME280;5525;42.648;23.368;2023-06-10T09:46:45;94216.22;;;40.52;21.82
10946;BME280;5525;42.648;23.368;2023-06-10T09:49:12;94221.94;;;41.42;21.61
10946;BME280;5525;42.648;23.368;2023-06-10T09:51:49;94216.84;;;38.95;23.93
10946;BME280;5525;42.648;23.368;2023-06-10T09:54:16;94213.19;;;40.14;23.35
10946;BME280;5525;42.648;23.368;2023-06-10T09:56:46;94219.47;;;41.15;22.82
10946;BME280;5525;42.648;23.368;2023-06-10T09:59:13;94210.31;;;39.79;24.16
10946;BME280;5525;42.648;23.368;2023-06-10T10:01:41;94205.72;;;41.61;23.46
10946;BME280;5525;42.648;23.368;2023-06-10T10:04:08;94205.97;;;41.82;22.83
10946;BME280;5525;42.648;23.368;2023-06-10T10:06:35;94200.31;;;40.13;24.38
10946;BME280;5525;42.648;23.368;2023-06-10T10:09:02;94193.19;;;40.37;23.97
10946;BME280;5525;42.648;23.368;2023-06-10T10:11:31;94198.41;;;41.10;22.86
10946;BME280;5525;42.648;23.368;2023-06-10T10:14:03;94185.91;;;38.40;25.44
10946;BME280;5525;42.648;23.368;2023-06-10T10:16:37;94173.06;;;33.67;30.75
10946;BME280;5525;42.648;23.368;2023-06-10T10:19:08;94163.28;;;33.77;31.90
10946;BME280;5525;42.648;23.368;2023-06-10T10:21:40;94168.00;;;35.55;28.82
10946;BME280;5525;42.648;23.368;2023-06-10T10:24:12;94184.31;;;38.78;26.49
10946;BME280;5525;42.648;23.368;2023-06-10T10:26:42;94176.63;;;40.46;24.74
10946;BME280;5525;42.648;23.368;2023-06-10T10:29:18;94184.50;;;40.29;24.16
10946;BME280;5525;42.648;23.368;2023-06-10T10:31:50;94180.69;;;39.91;24.45
10946;BME280;5525;42.648;23.368;2023-06-10T10:34:21;94179.88;;;39.56;24.71
10946;BME280;5525;42.648;23.368;2023-06-10T10:36:51;94173.84;;;39.76;24.00
10946;BME280;5525;42.648;23.368;2023-06-10T10:39:18;94175.63;;;40.73;24.23
10946;BME280;5525;42.648;23.368;2023-06-10T10:41:46;94174.66;;;40.89;22.97
10946;BME280;5525;42.648;23.368;2023-06-10T10:44:16;94166.25;;;40.24;22.79
10946;BME280;5525;42.648;23.368;2023-06-10T10:46:43;94162.97;;;37.28;26.08
10946;BME280;5525;42.648;23.368;2023-06-10T10:49:12;94150.13;;;36.20;28.07
10946;BME280;5525;42.648;23.368;2023-06-10T10:51:56;94155.34;;;36.33;26.49
10946;BME280;5525;42.648;23.368;2023-06-10T10:54:28;94162.59;;;38.01;26.26
10946;BME280;5525;42.648;23.368;2023-06-10T10:57:15;94145.38;;;35.69;29.78
10946;BME280;5525;42.648;23.368;2023-06-10T10:59:54;94138.25;;;34.57;31.24
10946;BME280;5525;42.648;23.368;2023-06-10T11:02:37;94145.13;;;35.99;30.67
10946;BME280;5525;42.648;23.368;2023-06-10T11:05:05;94145.94;;;36.41;29.46
10946;BME280;5525;42.648;23.368;2023-06-10T11:07:33;94141.75;;;34.52;31.95
10946;BME280;5525;42.648;23.368;2023-06-10T11:10:02;94125.25;;;32.36;36.93
10946;BME280;5525;42.648;23.368;2023-06-10T11:12:56;94125.00;;;30.64;40.44
10946;BME280;5525;42.648;23.368;2023-06-10T11:15:26;94111.50;;;29.29;42.05
10946;BME280;5525;42.648;23.368;2023-06-10T11:18:13;94105.31;;;28.60;45.43
10946;BME280;5525;42.648;23.368;2023-06-10T11:20:57;94104.25;;;28.11;47.32
10946;BME280;5525;42.648;23.368;2023-06-10T11:23:32;94101.66;;;27.95;49.00
10946;BME280;5525;42.648;23.368;2023-06-10T11:26:30;94096.63;;;29.63;45.33
10946;BME280;5525;42.648;23.368;2023-06-10T11:29:08;94097.06;;;32.48;37.61
10946;BME280;5525;42.648;23.368;2023-06-10T11:31:49;94090.72;;;34.28;35.26
10946;BME280;5525;42.648;23.368;2023-06-10T11:34:21;94109.81;;;34.44;32.55
10946;BME280;5525;42.648;23.368;2023-06-10T11:36:51;94099.00;;;32.33;35.03
10946;BME280;5525;42.648;23.368;2023-06-10T11:39:19;94087.81;;;31.45;36.73
10946;BME280;5525;42.648;23.368;2023-06-10T11:41:46;94094.44;;;32.45;35.54
10946;BME280;5525;42.648;23.368;2023-06-10T11:44:13;94087.53;;;31.43;37.62
10946;BME280;5525;42.648;23.368;2023-06-10T11:46:41;94081.81;;;31.28;39.24
10946;BME280;5525;42.648;23.368;2023-06-10T11:49:11;94072.47;;;31.49;37.59
10946;BME280;5525;42.648;23.368;2023-06-10T11:51:39;94074.75;;;31.18;38.82
10946;BME280;5525;42.648;23.368;2023-06-10T11:54:09;94073.19;;;31.59;38.06
10946;BME280;5525;42.648;23.368;2023-06-10T11:56:36;94070.38;;;31.35;37.99
10946;BME280;5525;42.648;23.368;2023-06-10T11:59:04;94074.78;;;30.01;41.69
10946;BME280;5525;42.648;23.368;2023-06-10T12:01:33;94070.19;;;29.58;43.05
10946;BME280;5525;42.648;23.368;2023-06-10T12:04:01;94061.00;;;29.97;42.57
10946;BME280;5525;42.648;23.368;2023-06-10T12:06:40;94068.75;;;29.44;42.90
10946;BME280;5525;42.648;23.368;2023-06-10T12:09:07;94065.22;;;29.13;42.24
10946;BME280;5525;42.648;23.368;2023-06-10T12:11:34;94073.28;;;28.99;42.41
10946;BME280;5525;42.648;23.368;2023-06-10T12:14:01;94062.94;;;28.99;42.04
10946;BME280;5525;42.648;23.368;2023-06-10T12:16:28;94071.50;;;28.62;43.75
10946;BME280;5525;42.648;23.368;2023-06-10T12:19:01;94069.09;;;29.16;42.14
10946;BME280;5525;42.648;23.368;2023-06-10T12:21:28;94061.41;;;29.69;41.80
10946;BME280;5525;42.648;23.368;2023-06-10T12:24:09;94055.00;;;29.50;41.24
10946;BME280;5525;42.648;23.368;2023-06-10T12:26:41;94068.50;;;30.36;39.72
10946;BME280;5525;42.648;23.368;2023-06-10T12:29:21;94050.06;;;30.30;38.73
10946;BME280;5525;42.648;23.368;2023-06-10T12:32:00;94062.91;;;30.54;37.81
10946;BME280;5525;42.648;23.368;2023-06-10T12:34:35;94058.41;;;30.39;38.15
10946;BME280;5525;42.648;23.368;2023-06-10T12:37:04;94060.88;;;30.73;37.40
10946;BME280;5525;42.648;23.368;2023-06-10T12:39:33;94050.50;;;30.64;37.81
10946;BME280;5525;42.648;23.368;2023-06-10T12:42:00;94053.66;;;31.17;37.52
10946;BME280;5525;42.648;23.368;2023-06-10T12:44:31;94031.91;;;30.88;36.32
10946;BME280;5525;42.648;23.368;2023-06-10T12:46:59;94037.66;;;30.67;38.69
10946;BME280;5525;42.648;23.368;2023-06-10T12:49:27;94045.69;;;30.74;38.83
10946;BME280;5525;42.648;23.368;2023-06-10T12:51:53;94038.31;;;30.44;37.87
10946;BME280;5525;42.648;23.368;2023-06-10T12:54:20;94042.97;;;30.20;38.77
10946;BME280;5525;42.648;23.368;2023-06-10T12:56:49;94041.09;;;30.44;39.38
10946;BME280;5525;42.648;23.368;2023-06-10T12:59:16;94041.38;;;30.28;37.98
10946;BME280;5525;42.648;23.368;2023-06-10T13:01:43;94038.97;;;29.63;38.82